createdAt,value
2017-12-29T00:02:23.569Z,20.30
2017-12-29T00:04:52.339Z,20.30
2017-12-29T00:07:20.439Z,20.30
2017-12-29T00:09:48.387Z,20.20
2017-12-29T00:12:17.213Z,20.20
2017-12-29T00:14:45.144Z,20.20
2017-12-29T00:17:13.132Z,20.30
2017-12-29T00:19:41.919Z,20.20
2017-12-29T00:22:10.615Z,20.10
2017-12-29T00:24:39.318Z,20.10
2017-12-29T00:27:07.355Z,20.10
2017-12-29T00:29:36.197Z,20.10
2017-12-29T00:32:04.179Z,20.10
2017-12-29T00:34:32.293Z,20.10
2017-12-29T00:37:00.972Z,20.10
2017-12-29T00:39:28.941Z,20.10
2017-12-29T00:41:57.041Z,20.10
2017-12-29T00:44:25.949Z,20.10
2017-12-29T00:46:53.951Z,20.00
2017-12-29T00:49:22.036Z,20.00
2017-12-29T00:51:49.983Z,20.00
2017-12-29T00:54:17.957Z,19.90
2017-12-29T00:56:46.043Z,19.90
2017-12-29T00:59:13.991Z,19.90
2017-12-29T01:01:41.915Z,19.90
2017-12-29T01:04:10.769Z,19.90
2017-12-29T01:06:38.719Z,19.90
2017-12-29T01:09:06.655Z,19.90
2017-12-29T01:11:35.504Z,19.90
2017-12-29T01:14:03.496Z,19.90
2017-12-29T01:16:31.527Z,19.90
2017-12-29T01:18:59.641Z,19.90
2017-12-29T01:21:27.613Z,19.80
2017-12-29T01:23:55.625Z,19.80
2017-12-29T01:26:23.739Z,19.80
2017-12-29T01:28:51.669Z,19.80
2017-12-29T01:31:19.749Z,19.70
2017-12-29T01:33:47.914Z,19.60
2017-12-29T01:36:15.847Z,19.60
2017-12-29T01:38:43.889Z,19.50
2017-12-29T01:41:11.944Z,19.40
2017-12-29T01:43:39.904Z,19.40
2017-12-29T01:46:07.891Z,19.50
2017-12-29T01:48:35.989Z,19.50
2017-12-29T01:51:03.977Z,19.40
2017-12-29T01:53:31.936Z,19.40
2017-12-29T01:56:00.107Z,19.40
2017-12-29T01:58:28.064Z,19.40
2017-12-29T02:00:56.045Z,19.40
2017-12-29T02:03:24.133Z,19.30
2017-12-29T02:05:52.229Z,19.30
2017-12-29T02:08:20.935Z,19.10
2017-12-29T02:10:49.027Z,19.10
2017-12-29T02:13:17.069Z,19.00
2017-12-29T02:15:45.777Z,19.10
2017-12-29T02:18:13.875Z,19.10
2017-12-29T02:20:41.839Z,19.10
2017-12-29T02:23:09.807Z,19.00
2017-12-29T02:25:37.903Z,19.00
2017-12-29T02:28:06.029Z,19.10
2017-12-29T02:30:34.049Z,19.00
2017-12-29T02:33:02.305Z,19.10
2017-12-29T02:35:30.286Z,19.00
2017-12-29T02:37:58.259Z,18.90
2017-12-29T02:40:26.363Z,18.90
2017-12-29T02:42:54.331Z,18.90
2017-12-29T02:45:22.357Z,18.70
2017-12-29T02:47:50.485Z,18.80
2017-12-29T02:50:19.203Z,18.70
2017-12-29T02:52:47.225Z,18.70
2017-12-29T02:55:15.335Z,18.80
2017-12-29T02:57:44.086Z,18.70
2017-12-29T03:00:12.067Z,18.70
2017-12-29T03:02:40.193Z,18.60
2017-12-29T03:05:08.205Z,18.60
2017-12-29T03:07:36.200Z,18.60
2017-12-29T03:10:05.088Z,18.70
2017-12-29T03:12:33.791Z,18.80
2017-12-29T03:15:02.533Z,18.70
2017-12-29T03:17:30.619Z,18.60
2017-12-29T03:19:58.633Z,18.60
2017-12-29T03:22:26.623Z,18.60
2017-12-29T03:24:54.756Z,18.70
2017-12-29T03:27:23.467Z,18.80
2017-12-29T03:29:51.430Z,18.80
2017-12-29T03:32:19.565Z,18.90
2017-12-29T03:34:47.717Z,19.10
2017-12-29T03:37:15.691Z,19.50
2017-12-29T03:39:43.771Z,20.40
2017-12-29T03:42:11.780Z,21.30
2017-12-29T03:44:40.957Z,22.20
2017-12-29T03:47:09.079Z,23.00
2017-12-29T03:49:37.089Z,23.40
2017-12-29T03:52:05.084Z,24.20
2017-12-29T03:54:33.217Z,25.10
2017-12-29T03:57:01.184Z,25.30
2017-12-29T03:59:29.194Z,25.80
2017-12-29T04:01:57.413Z,26.80
2017-12-29T04:04:25.421Z,27.20
2017-12-29T04:06:53.428Z,27.30
2017-12-29T04:09:22.275Z,27.80
2017-12-29T04:11:50.284Z,27.80
2017-12-29T04:14:19.041Z,26.20
2017-12-29T04:16:47.193Z,26.20
2017-12-29T04:19:15.193Z,25.10
2017-12-29T04:21:43.213Z,24.10
2017-12-29T04:24:12.084Z,23.00
2017-12-29T04:26:40.909Z,23.10
2017-12-29T04:29:08.890Z,23.00
2017-12-29T04:31:37.029Z,22.90
2017-12-29T04:34:05.789Z,22.90
2017-12-29T04:36:33.983Z,22.90
2017-12-29T04:39:02.855Z,23.00
2017-12-29T04:41:30.881Z,23.00
2017-12-29T04:43:59.210Z,23.00
2017-12-29T04:46:27.917Z,23.10
2017-12-29T04:48:56.724Z,23.40
2017-12-29T04:51:25.451Z,23.50
2017-12-29T04:53:53.555Z,23.40
2017-12-29T04:56:21.643Z,23.50
2017-12-29T04:58:50.359Z,23.90
2017-12-29T05:01:18.505Z,24.00
2017-12-29T05:03:47.240Z,24.00
2017-12-29T05:06:15.295Z,24.00
2017-12-29T05:08:43.403Z,23.80
2017-12-29T05:11:11.396Z,23.80
2017-12-29T05:13:39.363Z,23.80
2017-12-29T05:16:07.583Z,23.70
2017-12-29T05:18:35.593Z,23.60
2017-12-29T05:21:03.600Z,23.70
2017-12-29T05:23:32.435Z,23.40
2017-12-29T05:26:00.529Z,23.40
2017-12-29T05:28:28.545Z,23.40
2017-12-29T05:30:57.909Z,23.60
2017-12-29T05:33:26.096Z,23.60
2017-12-29T05:35:54.325Z,23.90
2017-12-29T05:38:22.564Z,24.00
2017-12-29T05:40:51.321Z,24.10
2017-12-29T05:43:19.295Z,24.10
2017-12-29T05:45:48.266Z,24.00
2017-12-29T05:48:16.244Z,24.00
2017-12-29T05:50:44.259Z,24.20
2017-12-29T05:53:13.135Z,24.20
2017-12-29T05:55:41.145Z,24.20
2017-12-29T05:58:09.111Z,24.30
2017-12-29T06:00:37.959Z,24.40
2017-12-29T06:03:06.569Z,24.40
2017-12-29T06:05:35.333Z,24.40
2017-12-29T06:08:03.467Z,24.40
2017-12-29T06:10:31.455Z,24.60
2017-12-29T06:12:59.461Z,24.80
2017-12-29T06:15:27.667Z,24.90
2017-12-29T06:17:56.425Z,25.10
2017-12-29T06:20:24.445Z,25.10
2017-12-29T06:22:52.561Z,25.10
2017-12-29T06:25:20.531Z,25.00
2017-12-29T06:27:48.545Z,25.10
2017-12-29T06:30:17.433Z,25.30
2017-12-29T06:32:46.201Z,25.40
2017-12-29T06:35:14.230Z,25.40
2017-12-29T06:37:42.595Z,25.40
2017-12-29T06:40:10.769Z,25.60
2017-12-29T06:42:38.781Z,25.70
2017-12-29T06:45:06.926Z,25.70
2017-12-29T06:47:34.890Z,25.80
2017-12-29T06:50:02.866Z,25.90
2017-12-29T06:52:30.947Z,26.10
2017-12-29T06:54:58.926Z,26.10
2017-12-29T06:57:26.962Z,26.00
2017-12-29T06:59:55.063Z,26.10
2017-12-29T07:02:23.032Z,26.30
2017-12-29T07:04:50.999Z,26.40
2017-12-29T07:07:19.087Z,26.40
2017-12-29T07:09:47.115Z,26.40
2017-12-29T07:12:15.861Z,26.50
2017-12-29T07:14:43.947Z,26.50
2017-12-29T07:17:11.907Z,26.60
2017-12-29T07:19:39.913Z,26.60
2017-12-29T07:22:08.781Z,26.70
2017-12-29T07:24:36.793Z,26.70
2017-12-29T07:27:04.767Z,26.70
2017-12-29T07:29:32.859Z,26.70
2017-12-29T07:32:00.835Z,26.80
2017-12-29T07:34:28.850Z,26.90
2017-12-29T07:36:57.702Z,27.00
2017-12-29T07:39:25.679Z,27.00
2017-12-29T07:41:53.827Z,27.10
2017-12-29T07:44:21.919Z,27.20
2017-12-29T07:46:49.887Z,27.20
2017-12-29T07:49:17.851Z,27.20
2017-12-29T07:51:45.994Z,27.40
2017-12-29T07:54:13.985Z,27.40
2017-12-29T07:56:42.009Z,27.40
2017-12-29T07:59:10.149Z,27.60
2017-12-29T08:01:38.161Z,27.70
2017-12-29T08:04:06.131Z,27.80
2017-12-29T08:06:34.223Z,27.90
2017-12-29T08:09:03.140Z,28.10
2017-12-29T08:11:31.146Z,28.10
2017-12-29T08:13:59.251Z,28.10
2017-12-29T08:16:27.967Z,28.10
2017-12-29T08:18:56.369Z,28.10
2017-12-29T08:21:24.505Z,28.30
2017-12-29T08:23:53.239Z,28.30
2017-12-29T08:26:21.211Z,28.30
2017-12-29T08:28:49.338Z,28.40
2017-12-29T08:31:18.059Z,28.40
2017-12-29T08:33:46.032Z,28.40
2017-12-29T08:36:14.193Z,28.50
2017-12-29T08:38:42.151Z,28.60
2017-12-29T08:41:10.169Z,28.80
2017-12-29T08:43:38.437Z,28.90
2017-12-29T08:46:06.411Z,29.00
2017-12-29T08:48:34.395Z,29.10
2017-12-29T08:51:02.495Z,29.00
2017-12-29T08:53:31.211Z,29.20
2017-12-29T08:55:59.233Z,29.10
2017-12-29T08:58:27.389Z,29.20
2017-12-29T09:00:55.393Z,29.10
2017-12-29T09:03:23.397Z,29.30
2017-12-29T09:05:51.535Z,29.40
2017-12-29T09:08:19.499Z,29.40
2017-12-29T09:10:47.521Z,29.40
2017-12-29T09:13:15.669Z,29.40
2017-12-29T09:15:44.396Z,29.40
2017-12-29T09:18:12.375Z,29.40
2017-12-29T09:20:40.457Z,29.40
2017-12-29T09:23:08.428Z,29.50
2017-12-29T09:25:36.409Z,29.40
2017-12-29T09:28:04.539Z,29.30
2017-12-29T09:30:32.545Z,29.40
2017-12-29T09:33:00.557Z,29.30
2017-12-29T09:35:29.441Z,29.20
2017-12-29T09:37:58.209Z,29.20
2017-12-29T09:40:26.197Z,29.20
2017-12-29T09:42:54.307Z,29.30
2017-12-29T09:45:22.471Z,29.30
2017-12-29T09:47:50.453Z,29.20
2017-12-29T09:50:18.621Z,29.20
2017-12-29T09:52:46.591Z,29.20
2017-12-29T09:55:14.619Z,29.20
2017-12-29T09:57:42.720Z,29.00
2017-12-29T10:00:11.432Z,28.90
2017-12-29T10:02:39.446Z,28.90
2017-12-29T10:05:07.539Z,28.80
2017-12-29T10:07:35.559Z,28.90
2017-12-29T10:10:03.609Z,28.70
2017-12-29T10:12:31.704Z,28.80
2017-12-29T10:14:59.729Z,28.70
2017-12-29T10:17:27.722Z,28.70
2017-12-29T10:19:55.865Z,28.70
2017-12-29T10:22:23.886Z,28.70
2017-12-29T10:24:51.913Z,28.60
2017-12-29T10:27:20.012Z,28.50
2017-12-29T10:29:48.786Z,28.40
2017-12-29T10:32:17.520Z,28.40
2017-12-29T10:34:45.639Z,28.40
2017-12-29T10:37:13.644Z,28.40
2017-12-29T10:39:41.683Z,28.50
2017-12-29T10:42:09.819Z,28.40
2017-12-29T10:44:37.850Z,28.40
2017-12-29T10:47:06.757Z,28.20
2017-12-29T10:49:35.035Z,28.20
2017-12-29T10:52:03.028Z,28.20
2017-12-29T10:54:31.007Z,28.20
2017-12-29T10:56:59.105Z,28.10
2017-12-29T10:59:27.154Z,28.00
2017-12-29T11:01:55.205Z,27.90
2017-12-29T11:04:23.357Z,27.90
2017-12-29T11:06:52.912Z,27.80
2017-12-29T11:09:20.937Z,27.80
2017-12-29T11:11:49.825Z,27.70
2017-12-29T11:14:18.580Z,27.70
2017-12-29T11:16:46.577Z,27.70
2017-12-29T11:19:14.770Z,27.60
2017-12-29T11:21:42.818Z,27.60
2017-12-29T11:24:11.573Z,27.50
2017-12-29T11:26:39.687Z,27.50
2017-12-29T11:29:08.473Z,27.50
2017-12-29T11:31:37.240Z,27.60
2017-12-29T11:34:05.337Z,27.60
2017-12-29T11:36:34.072Z,27.50
2017-12-29T11:39:02.062Z,27.50
2017-12-29T11:41:30.218Z,27.50
2017-12-29T11:43:58.246Z,27.50
2017-12-29T11:46:27.003Z,27.40
2017-12-29T11:48:55.376Z,27.40
2017-12-29T11:51:23.370Z,27.40
2017-12-29T11:53:51.393Z,27.40
2017-12-29T11:56:19.493Z,27.30
2017-12-29T11:58:47.492Z,27.20
2017-12-29T12:01:16.373Z,27.10
2017-12-29T12:03:44.529Z,27.10
2017-12-29T12:06:12.735Z,27.00
2017-12-29T12:08:40.716Z,27.00
2017-12-29T12:11:09.559Z,27.00
2017-12-29T12:13:37.574Z,27.00
2017-12-29T12:16:06.341Z,26.90
2017-12-29T12:18:34.435Z,26.90
2017-12-29T12:21:03.221Z,26.80
2017-12-29T12:23:31.233Z,26.80
2017-12-29T12:25:59.538Z,26.70
2017-12-29T12:28:27.515Z,26.70
2017-12-29T12:30:55.546Z,26.70
2017-12-29T12:33:23.671Z,26.70
2017-12-29T12:35:51.659Z,26.60
2017-12-29T12:38:19.679Z,26.60
2017-12-29T12:40:47.785Z,26.60
2017-12-29T12:43:15.800Z,26.50
2017-12-29T12:45:44.523Z,26.40
2017-12-29T12:48:12.852Z,26.40
2017-12-29T12:50:41.854Z,26.40
2017-12-29T12:53:10.587Z,26.30
2017-12-29T12:55:38.695Z,26.20
2017-12-29T12:58:06.689Z,26.20
2017-12-29T13:00:35.428Z,26.10
2017-12-29T13:03:03.557Z,26.20
2017-12-29T13:05:32.333Z,26.00
2017-12-29T13:08:01.048Z,25.90
2017-12-29T13:10:29.144Z,25.90
2017-12-29T13:12:57.123Z,25.80
2017-12-29T13:15:25.125Z,25.80
2017-12-29T13:17:53.281Z,25.90
2017-12-29T13:20:21.310Z,25.80
2017-12-29T13:22:49.508Z,25.70
2017-12-29T13:25:17.603Z,25.70
2017-12-29T13:27:45.594Z,25.60
2017-12-29T13:30:13.583Z,25.60
2017-12-29T13:32:42.431Z,25.50
2017-12-29T13:35:10.404Z,25.60
2017-12-29T13:37:38.561Z,25.50
2017-12-29T14:00:37.066Z,25.80
2017-12-29T14:03:05.039Z,25.50
2017-12-29T14:05:33.072Z,25.40
2017-12-29T14:08:01.202Z,25.30
2017-12-29T14:10:29.180Z,25.30
2017-12-29T14:12:57.194Z,25.30
2017-12-29T14:15:26.114Z,25.20
2017-12-29T14:17:54.097Z,25.20
2017-12-29T14:20:22.095Z,25.20
2017-12-29T14:22:50.208Z,25.20
2017-12-29T14:25:18.973Z,25.10
2017-12-29T14:27:46.963Z,25.10
2017-12-29T14:30:15.853Z,25.10
2017-12-29T14:32:43.880Z,25.10
2017-12-29T14:35:11.925Z,25.00
2017-12-29T14:37:40.075Z,25.00
2017-12-29T14:40:08.818Z,25.00
2017-12-29T14:42:36.837Z,25.00
2017-12-29T14:45:05.688Z,25.00
2017-12-29T14:47:33.724Z,25.00
2017-12-29T14:50:01.711Z,25.00
2017-12-29T14:52:29.859Z,25.00
2017-12-29T14:54:58.579Z,25.00
2017-12-29T14:57:27.516Z,25.00
2017-12-29T14:59:55.615Z,25.00
2017-12-29T15:02:24.485Z,24.80
2017-12-29T15:04:52.468Z,24.80
2017-12-29T15:07:20.675Z,24.80
2017-12-29T15:09:48.678Z,24.80
2017-12-29T15:12:16.702Z,24.80
2017-12-29T15:14:44.838Z,24.90
2017-12-29T15:29:59.204Z,25.00
2017-12-29T15:32:27.966Z,24.70
2017-12-29T15:34:55.940Z,24.70
2017-12-29T15:37:24.092Z,24.60
2017-12-29T15:39:52.096Z,24.50
2017-12-29T15:42:20.130Z,24.60
2017-12-29T15:44:48.274Z,24.50
2017-12-29T15:47:16.294Z,24.50
2017-12-29T15:49:44.310Z,24.50
2017-12-29T15:52:13.216Z,24.40
2017-12-29T15:54:41.250Z,24.40
2017-12-29T15:57:09.549Z,24.40
2017-12-29T15:59:38.388Z,24.30
2017-12-29T16:02:07.469Z,24.30
2017-12-29T16:04:35.588Z,24.40
2017-12-29T16:07:03.692Z,24.30
2017-12-29T16:09:31.730Z,24.30
2017-12-29T16:11:59.756Z,24.20
2017-12-29T16:14:27.869Z,24.20
2017-12-29T16:16:55.856Z,24.10
2017-12-29T16:19:23.894Z,24.10
2017-12-29T16:21:52.046Z,24.10
2017-12-29T16:24:20.033Z,24.10
2017-12-29T16:26:48.019Z,24.00
2017-12-29T16:29:16.168Z,24.10
2017-12-29T16:31:44.166Z,24.00
2017-12-29T16:34:12.183Z,24.00
2017-12-29T16:36:41.074Z,24.00
2017-12-29T16:39:09.812Z,24.00
2017-12-29T16:41:37.842Z,24.00
2017-12-29T16:44:05.937Z,24.00
2017-12-29T16:46:33.933Z,24.00
2017-12-29T16:49:01.950Z,23.90
2017-12-29T16:51:30.842Z,23.90
2017-12-29T16:53:59.576Z,23.90
2017-12-29T16:56:27.602Z,23.90
2017-12-29T16:58:56.498Z,23.80
2017-12-29T17:01:25.236Z,23.80
2017-12-29T17:03:53.224Z,23.80
2017-12-29T17:06:21.480Z,23.70
2017-12-29T17:08:49.510Z,23.70
2017-12-29T17:11:17.489Z,23.60
2017-12-29T17:13:45.654Z,23.60
2017-12-29T17:16:13.649Z,23.60
2017-12-29T17:18:41.698Z,23.60
2017-12-29T17:21:09.816Z,23.60
2017-12-29T17:23:37.843Z,23.60
2017-12-29T17:26:05.815Z,23.50
2017-12-29T17:28:33.943Z,23.50
2017-12-29T17:31:01.934Z,23.50
2017-12-29T17:33:29.996Z,23.60
2017-12-29T17:35:58.186Z,23.60
2017-12-29T17:38:26.255Z,23.40
2017-12-29T17:40:54.236Z,23.40
2017-12-29T17:43:23.113Z,23.40
2017-12-29T17:45:51.324Z,23.40
2017-12-29T17:48:19.304Z,23.40
2017-12-29T17:50:47.450Z,23.40
2017-12-29T17:53:16.243Z,23.30
2017-12-29T17:55:45.000Z,23.40
2017-12-29T17:58:13.150Z,23.40
2017-12-29T18:00:41.120Z,23.40
2017-12-29T18:03:09.100Z,23.40
2017-12-29T18:05:37.232Z,23.30
2017-12-29T18:08:06.170Z,23.30
2017-12-29T18:10:34.182Z,23.30
2017-12-29T18:13:02.977Z,23.20
2017-12-29T18:15:31.778Z,23.20
2017-12-29T18:17:59.790Z,23.20
2017-12-29T18:20:28.761Z,23.20
2017-12-29T18:22:56.812Z,23.20
2017-12-29T18:25:24.760Z,23.20
2017-12-29T18:27:52.898Z,23.20
2017-12-29T18:30:20.935Z,23.20
2017-12-29T18:32:48.956Z,23.20
2017-12-29T18:35:17.064Z,23.20
2017-12-29T18:37:45.740Z,23.10
2017-12-29T18:40:13.760Z,23.00
2017-12-29T18:42:41.882Z,23.00
2017-12-29T18:45:09.914Z,23.00
2017-12-29T18:47:37.879Z,23.00
2017-12-29T18:50:05.960Z,23.00
2017-12-29T18:52:33.974Z,22.90
2017-12-29T18:55:02.824Z,22.90
2017-12-29T18:57:31.940Z,22.80
2017-12-29T18:59:59.994Z,22.80
2017-12-29T19:02:27.988Z,22.80
2017-12-29T19:04:56.128Z,22.80
2017-12-29T19:07:25.327Z,22.70
2017-12-29T19:09:53.409Z,22.70
2017-12-29T19:12:21.582Z,22.70
2017-12-29T19:14:49.560Z,22.70
2017-12-29T19:17:17.572Z,22.70
2017-12-29T19:19:46.418Z,22.70
2017-12-29T19:22:14.432Z,22.60
2017-12-29T19:24:42.451Z,22.60
2017-12-29T19:27:11.494Z,22.60
2017-12-29T19:29:39.503Z,22.60
2017-12-29T19:32:07.474Z,22.50
2017-12-29T19:34:35.738Z,22.50
2017-12-29T19:37:04.550Z,22.50
2017-12-29T19:39:32.583Z,22.50
2017-12-29T19:42:01.482Z,22.50
2017-12-29T19:44:30.216Z,22.50
2017-12-29T19:46:58.348Z,22.40
2017-12-29T19:49:27.134Z,22.40
2017-12-29T19:51:55.832Z,22.30
2017-12-29T19:54:24.610Z,22.30
2017-12-29T19:56:53.464Z,22.30
2017-12-29T19:59:21.470Z,22.30
2017-12-29T20:01:51.000Z,22.20
2017-12-29T20:04:19.102Z,22.10
2017-12-29T20:06:47.169Z,22.20
2017-12-29T20:09:15.329Z,22.20
2017-12-29T20:11:43.572Z,22.20
2017-12-29T20:14:12.338Z,22.10
2017-12-29T20:16:40.354Z,22.10
2017-12-29T20:19:08.462Z,22.10
2017-12-29T20:21:36.456Z,22.10
2017-12-29T20:24:04.422Z,22.10
2017-12-29T20:26:32.530Z,22.00
2017-12-29T20:29:02.199Z,22.00
2017-12-29T20:31:30.160Z,22.00
2017-12-29T20:33:58.298Z,22.00
2017-12-29T20:36:27.058Z,21.90
2017-12-29T20:38:55.028Z,21.90
2017-12-29T20:41:23.104Z,21.90
2017-12-29T20:43:51.170Z,21.80
2017-12-29T20:46:19.218Z,21.80
2017-12-29T20:48:47.350Z,21.80
2017-12-29T20:51:15.371Z,21.80
2017-12-29T20:53:43.280Z,21.80
2017-12-29T20:56:12.298Z,21.80
2017-12-29T20:58:40.338Z,21.80
2017-12-29T21:01:09.098Z,21.80
2017-12-29T21:03:37.188Z,21.70
2017-12-29T21:06:05.207Z,21.70
2017-12-29T21:08:33.168Z,21.70
2017-12-29T21:11:01.264Z,21.70
2017-12-29T21:13:29.444Z,21.60
2017-12-29T21:15:57.456Z,21.60
2017-12-29T21:18:25.544Z,21.60
2017-12-29T21:20:54.306Z,21.50
2017-12-29T21:23:22.277Z,21.60
2017-12-29T21:25:50.407Z,21.60
2017-12-29T21:28:18.387Z,21.60
2017-12-29T21:30:46.420Z,21.60
2017-12-29T21:33:15.258Z,21.50
2017-12-29T21:35:43.222Z,21.50
2017-12-29T21:38:11.216Z,21.50
2017-12-29T21:40:39.386Z,21.50
2017-12-29T21:43:07.412Z,21.50
2017-12-29T21:45:35.387Z,21.40
2017-12-29T21:48:03.534Z,21.40
2017-12-29T21:50:32.322Z,21.50
2017-12-29T21:53:00.329Z,21.50
2017-12-29T21:55:28.420Z,21.40
2017-12-29T21:57:56.473Z,21.40
2017-12-29T22:00:24.541Z,21.40
2017-12-29T22:02:52.655Z,21.40
2017-12-29T22:05:20.568Z,21.30
2017-12-29T22:07:49.278Z,21.30
2017-12-29T22:10:17.455Z,21.30
2017-12-29T22:12:45.462Z,21.30
2017-12-29T22:15:13.625Z,21.30
2017-12-29T22:17:41.709Z,21.30
2017-12-29T22:20:09.676Z,21.10
2017-12-29T22:22:37.638Z,21.10
2017-12-29T22:25:05.757Z,21.00
2017-12-29T22:27:34.510Z,20.90
2017-12-29T22:30:02.478Z,20.90
2017-12-29T22:32:30.556Z,20.90
2017-12-29T22:34:58.564Z,20.80
2017-12-29T22:37:27.269Z,20.70
2017-12-29T22:39:55.408Z,20.70
2017-12-29T22:42:23.345Z,20.70
2017-12-29T22:44:51.373Z,20.70
2017-12-29T22:47:20.205Z,20.70
2017-12-29T22:49:48.202Z,20.70
2017-12-29T22:52:16.213Z,20.70
2017-12-29T22:54:45.030Z,20.70
2017-12-29T22:57:13.014Z,20.70
2017-12-29T22:59:40.946Z,20.60
2017-12-29T23:02:09.093Z,20.60
2017-12-29T23:04:37.150Z,20.60
2017-12-29T23:07:05.108Z,20.50
2017-12-29T23:09:33.284Z,20.50
2017-12-29T23:12:01.288Z,20.40
2017-12-29T23:14:30.003Z,20.50
2017-12-29T23:16:58.273Z,20.50
2017-12-29T23:19:27.028Z,20.50
2017-12-29T23:21:55.014Z,20.50
2017-12-29T23:24:23.856Z,20.50
2017-12-29T23:26:51.844Z,20.50
2017-12-29T23:29:19.846Z,20.50
2017-12-29T23:31:47.949Z,20.50
2017-12-29T23:34:16.097Z,20.40
2017-12-29T23:36:44.858Z,20.40
2017-12-29T23:39:12.996Z,20.30
2017-12-29T23:41:41.050Z,20.30
2017-12-29T23:44:09.720Z,20.40
2017-12-29T23:46:38.564Z,20.20
2017-12-29T23:49:06.533Z,20.20
2017-12-29T23:51:34.530Z,20.20
2017-12-29T23:54:02.654Z,20.20
2017-12-29T23:56:30.621Z,20.20
2017-12-29T23:58:58.646Z,20.20
